Pagrindinis puslapis
METAR-TAF:

METAR-TAF

Oro uostai :

Victoria Regional Airport

Victoria, Teksasas, Jungtinės Amerikos Valstijos

platuma: 28-51-45N, ilguma: 096-55-47W, Aukštis: 35 m

Dabartinis oras

Ataskaita buvo paskelbta 32 minutes, ne 05:51 UTC
Ramus vėjas
Temperatūra 23°C
Drėgmė 78%
Slėgis 1013 hPa
Matomumas: 16.1 km
Giedras dangus

METAR: KVCT 270551Z AUTO 00000KT 10SM CLR 23/19 A2992 RMK AO2 SLP128 T02280194 10300 20222 403110200 50006

Laikas: 01:23 (06:23 UTC)

Prognozė

Ataskaita buvo paskelbta 1 valandą ir 3 minutes, ne 05:20 UTC
Prognozė galioja nuo 27 metu 06 UTC su 28 metu 06 UTC
Vėjas 3 kt nuo kintamojo kryptimis
Matomumas: 10 km
Giedras dangus
Laikinai
nuo 27 metu 10 UTC su 27 metu 13 UTC
Matomumas: 8.0 km
rūkana
Nuo 27 metu 1800 UTC
Vėjas 11 kt iš Pietų
Matomumas: 10 km
Išsisklaidę debesys ne aukštis 25000 ft

TAF: KVCT 270520Z 2706/2806 VRB03KT P6SM SKC TEMPO 2710/2713 5SM BR FM271800 18011KT P6SM SCT250

Orai ataskaitas ir orų prognozės (METAR, TAF).

turimą stotys yra geltonos ir raudonos taškus žemėlapyje.

Perkelti pele per norėdami pamatyti stoties vardą.

Tada spustelėkite, norėdami matyti oro stebėjimo ir prognozės.

Norėdami pakeisti žemėlapį: spustelėkite ant žalios mygtukų su juodo kryžiaus žemyn,; žalią mygtuką su brūkšneliu, jei norite nutolinti; arba žalių rodyklių gretimoms žemėlapius.


METAR-TAF: